createdAt,value
2022-11-18T00:00:23.600Z,166.14
2022-11-18T00:02:31.442Z,166.75
2022-11-18T00:04:37.210Z,169.53
2022-11-18T00:06:45.484Z,166.95
2022-11-18T00:08:55.072Z,168.61
2022-11-18T00:11:01.465Z,182.01
2022-11-18T00:13:19.512Z,179.13
2022-11-18T00:15:31.455Z,174.61
2022-11-18T00:17:37.454Z,164.33
2022-11-18T00:19:43.728Z,168.23
2022-11-18T00:21:50.437Z,167.82
2022-11-18T00:23:58.705Z,167.51
2022-11-18T00:26:09.406Z,174.47
2022-11-18T00:28:15.909Z,170.84
2022-11-18T00:30:23.052Z,167.38
2022-11-18T00:32:28.792Z,174.58
2022-11-18T00:34:35.394Z,174.35
2022-11-18T00:36:42.117Z,173.46
2022-11-18T00:38:48.446Z,176.28
2022-11-18T00:41:07.400Z,182.26
2022-11-18T00:43:10.405Z,186.33
2022-11-18T00:45:16.130Z,190.21
2022-11-18T00:47:22.635Z,183.79
2022-11-18T00:49:28.386Z,188.21
2022-11-18T00:51:34.054Z,184.92
2022-11-18T00:53:40.568Z,174.98
2022-11-18T00:55:46.893Z,177.32
2022-11-18T00:57:56.440Z,180.22
2022-11-18T01:00:09.931Z,185.70
2022-11-18T01:02:33.387Z,179.97
2022-11-18T01:04:39.164Z,186.12
2022-11-18T01:06:45.664Z,186.94
2022-11-18T01:08:51.458Z,173.68
2022-11-18T01:11:17.223Z,174.55
2022-11-18T01:13:26.023Z,172.42
2022-11-18T01:15:31.763Z,173.86
2022-11-18T01:17:45.614Z,164.87
2022-11-18T01:19:52.289Z,171.98
2022-11-18T01:22:09.916Z,174.54
2022-11-18T01:24:21.405Z,169.10
2022-11-18T01:26:27.977Z,165.89
2022-11-18T01:28:36.882Z,172.91
2022-11-18T01:30:45.869Z,176.41
2022-11-18T01:32:52.457Z,190.10
2022-11-18T01:34:58.382Z,188.28
2022-11-18T01:37:11.121Z,188.98
2022-11-18T01:39:17.775Z,194.89
2022-11-18T01:41:28.784Z,191.45
2022-11-18T01:43:53.803Z,178.52
2022-11-18T01:46:00.250Z,185.84
2022-11-18T01:48:23.424Z,194.68
2022-11-18T01:50:31.461Z,186.90
2022-11-18T01:52:41.704Z,184.33
2022-11-18T01:54:58.298Z,199.60
2022-11-18T01:57:17.292Z,197.74
2022-11-18T01:59:45.372Z,193.42
2022-11-18T02:01:54.064Z,192.89
2022-11-18T02:04:02.441Z,192.49
2022-11-18T02:06:19.806Z,187.30
2022-11-18T02:08:26.793Z,189.34
2022-11-18T02:10:33.341Z,195.59
2022-11-18T02:12:41.192Z,198.78
2022-11-18T02:14:51.842Z,201.58
2022-11-18T02:17:17.984Z,196.87
2022-11-18T02:20:06.174Z,192.76
2022-11-18T02:22:45.562Z,191.35
2022-11-18T02:25:10.082Z,195.30
2022-11-18T02:27:56.949Z,200.25
2022-11-18T02:30:09.983Z,207.09
2022-11-18T02:32:28.083Z,191.15
2022-11-18T02:34:54.108Z,194.09
2022-11-18T02:37:10.837Z,188.95
2022-11-18T02:39:26.790Z,202.24
2022-11-18T02:41:38.164Z,187.21
2022-11-18T02:43:54.276Z,185.31
2022-11-18T02:46:12.005Z,182.17
2022-11-18T02:48:29.595Z,184.51
2022-11-18T02:50:45.792Z,198.27
2022-11-18T04:35:23.501Z,154.59
2022-11-18T04:37:30.273Z,159.01
2022-11-18T04:39:35.959Z,159.61
2022-11-18T04:41:54.093Z,159.98
2022-11-18T04:44:00.670Z,160.52
2022-11-18T04:46:09.238Z,164.81
2022-11-18T04:48:14.946Z,162.91
2022-11-18T04:50:24.182Z,171.54
2022-11-18T04:52:32.480Z,166.66
2022-11-18T04:54:38.281Z,160.12
2022-11-18T04:56:49.399Z,165.37
2022-11-18T04:58:55.619Z,171.54
2022-11-18T05:01:01.329Z,178.37
2022-11-18T05:03:10.302Z,181.88
2022-11-18T05:05:16.178Z,186.72
2022-11-18T05:07:24.526Z,185.12
2022-11-18T05:09:32.498Z,170.89
2022-11-18T05:11:50.787Z,173.13
2022-11-18T05:13:57.245Z,171.31
2022-11-18T05:16:07.763Z,167.03
2022-11-18T05:18:19.193Z,170.48
2022-11-18T05:20:24.998Z,171.82
2022-11-18T05:22:40.432Z,170.98
2022-11-18T05:24:50.274Z,179.09
2022-11-18T05:26:57.882Z,171.43
2022-11-18T05:29:19.797Z,173.55
2022-11-18T05:31:38.121Z,186.76
2022-11-18T05:33:45.674Z,192.60
2022-11-18T05:35:55.551Z,189.53
2022-11-18T05:38:06.286Z,151.98
2022-11-18T05:40:17.497Z,158.12
2022-11-18T05:42:40.100Z,151.15
2022-11-18T05:44:45.781Z,151.02
2022-11-18T05:47:03.110Z,157.00
2022-11-18T05:49:13.987Z,160.50
2022-11-18T05:51:19.689Z,171.31
2022-11-18T05:53:35.267Z,158.92
2022-11-18T05:55:52.078Z,160.97
2022-11-18T05:57:58.180Z,161.53
2022-11-18T06:00:03.899Z,168.68
2022-11-18T06:02:30.496Z,164.16
2022-11-18T06:04:45.275Z,165.15
2022-11-18T06:06:57.784Z,167.67
2022-11-18T06:09:11.328Z,167.49
2022-11-18T06:11:23.160Z,170.44
2022-11-18T06:13:41.645Z,169.54
2022-11-18T06:15:49.507Z,178.28
2022-11-18T06:18:04.544Z,181.87
2022-11-18T06:20:13.295Z,187.87
2022-11-18T06:22:20.070Z,182.23
2022-11-18T06:24:29.271Z,191.18
2022-11-18T06:26:35.327Z,179.14
2022-11-18T06:28:44.385Z,179.22
2022-11-18T06:30:50.088Z,180.50
2022-11-18T06:32:55.965Z,185.41
2022-11-18T06:35:02.403Z,188.82
2022-11-18T06:37:16.711Z,196.64
2022-11-18T06:39:22.571Z,191.76
2022-11-18T06:41:31.725Z,200.70
2022-11-18T06:43:41.998Z,198.42
2022-11-18T06:46:09.374Z,213.89
2022-11-18T06:48:19.547Z,217.29
2022-11-18T06:50:25.213Z,208.20
2022-11-18T06:52:31.198Z,204.46
2022-11-18T06:54:37.728Z,201.70
2022-11-18T06:56:46.097Z,203.92
2022-11-18T06:59:04.967Z,200.98
2022-11-18T07:01:16.404Z,205.20
2022-11-18T07:03:22.095Z,198.70
2022-11-18T07:05:27.803Z,205.30
2022-11-18T07:07:43.197Z,200.90
2022-11-18T07:09:48.930Z,200.53
2022-11-18T07:11:57.261Z,190.87
2022-11-18T07:14:04.141Z,185.16
2022-11-18T07:16:18.888Z,194.71
2022-11-18T07:18:24.616Z,191.64
2022-11-18T07:20:31.255Z,190.38
2022-11-18T07:22:37.014Z,190.16
2022-11-18T07:24:43.562Z,203.93
2022-11-18T07:26:50.074Z,199.34
2022-11-18T07:29:00.290Z,180.48
2022-11-18T07:31:08.623Z,196.13
2022-11-18T07:33:15.111Z,213.74
2022-11-18T07:35:20.874Z,228.56
2022-11-18T07:37:26.839Z,210.79
2022-11-18T07:39:33.452Z,205.44
2022-11-18T07:41:39.548Z,185.97
2022-11-18T07:43:47.285Z,194.25
2022-11-18T07:45:56.454Z,188.08
2022-11-18T07:48:04.965Z,173.65
2022-11-18T07:50:21.514Z,174.51
2022-11-18T07:52:28.887Z,183.26
2022-11-18T07:54:34.737Z,181.42
2022-11-18T07:56:46.991Z,171.81
2022-11-18T07:58:57.024Z,174.29
2022-11-18T08:01:11.695Z,187.12
2022-11-18T08:03:17.460Z,188.83
2022-11-18T08:05:24.045Z,180.05
2022-11-18T08:07:30.021Z,184.64
2022-11-18T08:09:35.828Z,188.81
2022-11-18T08:11:42.321Z,183.38
2022-11-18T08:14:00.803Z,166.47
2022-11-18T08:16:19.462Z,147.76
2022-11-18T08:18:27.411Z,146.30
2022-11-18T08:20:37.688Z,148.53
2022-11-18T08:22:43.552Z,154.61
2022-11-18T08:24:50.383Z,158.73
2022-11-18T08:26:56.205Z,155.07
2022-11-18T08:29:14.518Z,171.91
2022-11-18T08:31:30.778Z,194.69
2022-11-18T08:33:36.540Z,197.81
2022-11-18T08:35:42.254Z,217.73
2022-11-18T08:37:48.833Z,172.28
2022-11-18T08:39:54.504Z,179.78
2022-11-18T08:42:01.999Z,195.99
2022-11-18T08:44:09.943Z,204.12
2022-11-18T08:46:15.731Z,189.98
2022-11-18T08:48:24.050Z,191.97
2022-11-18T08:50:30.591Z,186.47
2022-11-18T08:52:36.887Z,188.08
2022-11-18T08:54:42.750Z,173.38
2022-11-18T08:56:50.723Z,174.05
2022-11-18T08:58:57.399Z,185.92
2022-11-18T09:01:09.204Z,180.72
2022-11-18T09:03:16.160Z,182.21
2022-11-18T09:05:24.547Z,182.49
2022-11-18T09:07:30.359Z,168.96
2022-11-18T09:09:37.067Z,170.95
2022-11-18T09:11:43.424Z,161.72
2022-11-18T09:16:16.873Z,159.22
2022-11-18T09:18:23.860Z,170.77
2022-11-18T09:20:32.203Z,179.00
2022-11-18T09:22:40.380Z,180.76
2022-11-18T09:24:46.184Z,194.67
2022-11-18T09:26:53.802Z,178.76
2022-11-18T09:29:00.307Z,175.21
2022-11-18T09:31:08.264Z,185.63
2022-11-18T09:33:20.610Z,167.52
2022-11-18T09:35:27.490Z,179.35
2022-11-18T09:37:36.756Z,184.92
2022-11-18T09:39:42.603Z,188.55
2022-11-18T09:41:52.519Z,195.36
2022-11-18T09:44:17.187Z,196.26
2022-11-18T09:46:42.086Z,207.55
2022-11-18T09:49:07.495Z,198.94
2022-11-18T09:51:23.190Z,196.09
2022-11-18T09:53:31.948Z,190.83
2022-11-18T09:55:43.957Z,201.94
2022-11-18T09:57:54.175Z,192.61
2022-11-18T10:00:00.704Z,186.54
2022-11-18T10:02:53.748Z,182.99
2022-11-18T10:05:04.587Z,192.63
2022-11-18T10:07:24.894Z,193.62
2022-11-18T10:09:44.030Z,209.47
2022-11-18T10:12:14.664Z,213.45
2022-11-18T10:14:46.394Z,243.32
2022-11-18T10:17:13.100Z,215.15
2022-11-18T10:19:37.242Z,190.69
2022-11-18T10:22:07.150Z,171.35
2022-11-18T10:24:23.718Z,189.21
2022-11-18T10:26:44.654Z,180.64
2022-11-18T10:28:53.860Z,187.88
2022-11-18T10:31:09.984Z,195.25
2022-11-18T10:33:29.644Z,196.25
2022-11-18T10:35:38.777Z,192.84
2022-11-18T10:38:06.810Z,192.52
2022-11-18T10:40:31.128Z,209.25
2022-11-18T10:42:47.333Z,210.00
2022-11-18T10:44:53.940Z,213.06
2022-11-18T10:47:19.641Z,213.74
2022-11-18T10:49:28.178Z,257.23
2022-11-18T10:51:34.691Z,266.63
2022-11-18T10:53:42.623Z,270.94
2022-11-18T10:56:02.021Z,275.78
2022-11-18T10:58:22.238Z,273.66
2022-11-18T11:00:45.762Z,274.37
2022-11-18T11:02:51.586Z,267.04
2022-11-18T11:05:07.153Z,276.27
2022-11-18T11:07:32.151Z,285.13
2022-11-18T11:09:38.012Z,311.21
2022-11-18T11:12:04.969Z,288.99
2022-11-18T11:14:24.801Z,281.11
2022-11-18T11:16:43.802Z,283.74
2022-11-18T11:19:01.276Z,274.75
2022-11-18T11:21:12.264Z,270.20
2022-11-18T11:23:23.663Z,264.40
2022-11-18T11:28:31.933Z,276.01
2022-11-18T11:30:57.224Z,278.05
2022-11-18T11:33:25.015Z,276.75
2022-11-18T11:35:45.756Z,282.84
2022-11-18T11:37:58.980Z,295.66
2022-11-18T11:40:31.984Z,301.70
2022-11-18T11:42:52.168Z,308.17
2022-11-18T11:45:21.982Z,316.07
2022-11-18T11:47:57.131Z,308.59
2022-11-18T11:50:16.763Z,317.95
2022-11-18T11:52:48.408Z,296.93
2022-11-18T11:55:15.578Z,313.08
2022-11-18T11:57:44.088Z,290.46
2022-11-18T12:00:06.335Z,287.02
2022-11-18T12:02:56.872Z,274.90
2022-11-18T12:05:20.927Z,284.90
2022-11-18T12:07:33.816Z,279.95
2022-11-18T12:10:04.757Z,286.05
2022-11-18T12:12:40.333Z,274.00
2022-11-18T12:14:59.583Z,275.82
2022-11-18T12:17:28.399Z,286.39
2022-11-18T12:19:42.801Z,275.40
2022-11-18T12:22:07.237Z,280.78
2022-11-18T12:24:36.757Z,273.39
2022-11-18T12:26:43.976Z,286.96
2022-11-18T12:28:50.236Z,295.34
2022-11-18T12:31:36.397Z,286.95
2022-11-18T12:33:48.381Z,293.55
2022-11-18T12:35:56.874Z,291.55
2022-11-18T12:38:06.148Z,286.10
2022-11-18T12:40:33.659Z,290.27
2022-11-18T12:42:59.420Z,290.38
2022-11-18T12:45:49.674Z,298.56
2022-11-18T12:48:01.974Z,294.14
2022-11-18T12:50:14.173Z,304.17
2022-11-18T12:52:56.422Z,290.68
2022-11-18T12:55:07.816Z,293.59
2022-11-18T12:57:23.712Z,286.67
2022-11-18T12:59:40.021Z,274.15
2022-11-18T13:01:46.759Z,254.66
2022-11-18T13:03:53.060Z,258.81
2022-11-18T13:06:08.707Z,263.47
2022-11-18T13:08:22.157Z,272.24
2022-11-18T13:10:34.931Z,289.74
2022-11-18T13:12:40.988Z,279.51
2022-11-18T13:15:10.165Z,256.05
2022-11-18T13:17:44.757Z,246.75
2022-11-18T13:19:59.614Z,242.97
2022-11-18T13:22:19.250Z,246.27
2022-11-18T13:24:27.806Z,242.53
2022-11-18T13:26:46.268Z,255.36
2022-11-18T13:29:20.755Z,264.30
2022-11-18T13:31:45.795Z,259.35
2022-11-18T13:33:57.642Z,263.59
2022-11-18T13:36:04.401Z,250.85
2022-11-18T13:38:33.344Z,245.18
2022-11-18T13:41:04.711Z,253.63
2022-11-18T13:43:14.895Z,256.30
2022-11-18T13:45:21.256Z,253.74
2022-11-18T13:47:39.964Z,240.57
2022-11-18T13:50:01.865Z,241.02
2022-11-18T13:52:08.317Z,244.63
2022-11-18T13:54:23.688Z,258.29
2022-11-18T13:56:35.316Z,260.67
2022-11-18T13:59:15.805Z,266.69
2022-11-18T14:01:22.010Z,247.78
2022-11-18T14:03:35.531Z,232.80
2022-11-18T14:05:44.309Z,230.06
2022-11-18T14:08:09.232Z,241.25
2022-11-18T14:10:19.319Z,249.82
2022-11-18T14:12:32.745Z,236.56
2022-11-18T14:14:42.334Z,246.80
2022-11-18T14:16:48.100Z,261.59
2022-11-18T14:18:55.456Z,261.55
2022-11-18T14:21:04.632Z,279.45
2022-11-18T14:23:20.883Z,264.45
2022-11-18T14:25:33.359Z,265.96
2022-11-18T14:27:46.486Z,276.83
2022-11-18T14:29:53.408Z,278.93
2022-11-18T14:32:17.937Z,268.78
2022-11-18T14:34:30.146Z,255.52
2022-11-18T14:36:35.972Z,324.78
2022-11-18T14:39:19.405Z,277.04
2022-11-18T14:41:45.096Z,264.56
2022-11-18T14:43:53.653Z,284.20
2022-11-18T14:46:04.959Z,286.62
2022-11-18T14:48:18.787Z,281.48
2022-11-18T14:50:24.580Z,270.39
2022-11-18T14:52:30.291Z,291.01
2022-11-18T14:54:37.124Z,286.67
2022-11-18T14:56:43.020Z,287.39
2022-11-18T14:58:48.719Z,281.09
2022-11-18T15:00:57.991Z,271.53
2022-11-18T15:03:03.901Z,255.86
2022-11-18T15:05:22.352Z,264.67
2022-11-18T15:07:28.958Z,268.62
2022-11-18T15:09:34.732Z,262.43
2022-11-18T15:11:40.421Z,285.07
2022-11-18T15:13:46.969Z,377.84
2022-11-18T15:15:52.721Z,331.19
2022-11-18T15:18:01.147Z,276.18
2022-11-18T15:20:08.866Z,293.01
2022-11-18T15:22:14.633Z,291.81
2022-11-18T15:24:27.218Z,250.68
2022-11-18T15:26:41.651Z,262.83
2022-11-18T15:28:47.430Z,255.14
2022-11-18T15:30:55.973Z,243.52
2022-11-18T15:33:10.979Z,212.89
2022-11-18T15:35:17.327Z,223.60
2022-11-18T15:37:29.553Z,220.18
2022-11-18T15:39:40.158Z,202.50
2022-11-18T15:41:46.576Z,189.93
2022-11-18T15:43:53.843Z,182.41
2022-11-18T15:46:03.997Z,194.18
2022-11-18T15:48:13.267Z,210.50
2022-11-18T15:50:19.994Z,221.99
2022-11-18T15:52:27.422Z,211.25
2022-11-18T15:54:33.273Z,224.35
2022-11-18T15:56:40.130Z,233.77
2022-11-18T15:58:46.704Z,223.51
2022-11-18T16:00:52.456Z,229.95
2022-11-18T16:03:28.839Z,246.72
2022-11-18T16:05:35.511Z,243.30
2022-11-18T16:07:41.308Z,252.29
2022-11-18T16:10:04.988Z,310.91
2022-11-18T16:12:24.782Z,282.68
2022-11-18T16:14:30.614Z,236.27
2022-11-18T16:16:38.131Z,242.35
2022-11-18T16:18:51.830Z,224.00
2022-11-18T16:21:07.560Z,218.17
2022-11-18T16:23:15.533Z,216.95
2022-11-18T16:25:22.144Z,210.04
2022-11-18T16:27:31.887Z,205.44
2022-11-18T16:29:43.916Z,209.49
2022-11-18T16:31:54.865Z,208.19
2022-11-18T16:34:20.126Z,233.62
2022-11-18T16:36:29.603Z,239.88
2022-11-18T16:38:36.215Z,243.02
2022-11-18T16:40:42.083Z,232.77
2022-11-18T16:42:50.825Z,218.53
2022-11-18T16:44:57.333Z,227.35
2022-11-18T16:47:05.321Z,231.51
2022-11-18T16:49:21.398Z,245.20
2022-11-18T16:51:31.035Z,243.29
2022-11-18T16:53:36.801Z,231.30
2022-11-18T16:55:42.572Z,242.82
2022-11-18T16:57:49.068Z,248.80
2022-11-18T16:59:55.868Z,259.22
2022-11-18T17:02:03.989Z,271.60
2022-11-18T17:04:11.873Z,275.42
2022-11-18T17:06:20.137Z,245.70
2022-11-18T17:08:27.102Z,225.51
2022-11-18T17:10:33.603Z,223.74
2022-11-18T17:12:39.328Z,238.65
2022-11-18T17:14:52.239Z,242.13
2022-11-18T17:17:01.452Z,270.07
2022-11-18T17:19:11.816Z,228.50
2022-11-18T17:21:22.229Z,224.83
2022-11-18T17:23:31.335Z,229.35
2022-11-18T17:25:40.818Z,234.26
2022-11-18T17:27:46.695Z,251.10
2022-11-18T17:29:53.599Z,240.83
2022-11-18T17:31:59.932Z,271.12
2022-11-18T17:34:05.852Z,275.68
2022-11-18T17:36:15.338Z,273.24
2022-11-18T17:38:23.621Z,288.55
2022-11-18T17:40:29.336Z,296.28
2022-11-18T17:42:35.988Z,276.72
2022-11-18T17:44:41.943Z,308.63
2022-11-18T17:46:51.287Z,326.26
2022-11-18T17:49:00.623Z,315.14
2022-11-18T17:51:09.990Z,307.44
2022-11-18T17:53:17.406Z,361.40
2022-11-18T17:55:26.950Z,307.04
2022-11-18T17:57:32.688Z,307.78
2022-11-18T17:59:38.603Z,307.61
2022-11-18T18:01:45.368Z,297.22
2022-11-18T18:03:51.930Z,306.12
2022-11-18T18:06:04.911Z,311.73
2022-11-18T18:08:16.798Z,301.25
2022-11-18T18:10:27.072Z,294.27
2022-11-18T18:12:45.383Z,257.49
2022-11-18T18:14:52.075Z,263.57
2022-11-18T18:16:57.874Z,260.28
2022-11-18T18:19:07.716Z,267.17
2022-11-18T18:21:14.347Z,268.28
2022-11-18T18:23:20.196Z,273.93
2022-11-18T18:25:28.581Z,256.69
2022-11-18T18:27:35.252Z,246.87
2022-11-18T18:29:41.095Z,236.41
2022-11-18T18:31:47.047Z,250.93
2022-11-18T18:33:53.700Z,260.71
2022-11-18T18:36:00.149Z,275.04
2022-11-18T18:38:05.822Z,266.06
2022-11-18T18:40:15.076Z,259.27
2022-11-18T18:42:23.935Z,249.01
2022-11-18T18:44:49.645Z,252.05
2022-11-18T18:46:53.663Z,261.88
2022-11-18T18:49:03.014Z,272.02
2022-11-18T18:51:10.228Z,280.75
2022-11-18T18:53:16.856Z,269.95
2022-11-18T18:55:23.352Z,284.48
2022-11-18T18:57:32.380Z,276.43
2022-11-18T18:59:39.102Z,288.47
2022-11-18T19:01:45.370Z,284.39
2022-11-18T19:03:56.235Z,273.69
2022-11-18T19:06:27.746Z,270.33
2022-11-18T19:08:28.805Z,250.42
2022-11-18T19:10:34.595Z,261.28
2022-11-18T19:12:44.361Z,256.62
2022-11-18T19:14:50.545Z,260.92
2022-11-18T19:16:58.104Z,245.83
2022-11-18T19:19:06.084Z,219.74
2022-11-18T19:21:11.378Z,229.81
2022-11-18T19:23:17.720Z,245.12
2022-11-18T19:25:24.362Z,230.25
2022-11-18T19:27:30.362Z,227.23
2022-11-18T19:29:38.794Z,220.63
2022-11-18T19:31:45.401Z,243.44
2022-11-18T19:33:52.039Z,245.42
2022-11-18T19:35:58.002Z,261.78
2022-11-18T19:38:04.760Z,233.87
2022-11-18T19:40:13.309Z,197.88
2022-11-18T19:42:19.054Z,190.80
2022-11-18T19:44:25.802Z,196.98
2022-11-18T19:46:34.333Z,198.82
2022-11-18T19:48:40.126Z,172.51
2022-11-18T19:50:46.872Z,174.38
2022-11-18T19:52:52.656Z,180.93
2022-11-18T19:54:58.503Z,177.94
2022-11-18T19:57:05.918Z,172.83
2022-11-18T19:59:11.828Z,167.27
2022-11-18T20:01:22.977Z,171.27
2022-11-18T20:03:34.130Z,178.31
2022-11-18T20:05:52.278Z,186.42
2022-11-18T20:07:58.782Z,198.35
2022-11-18T20:10:06.849Z,191.97
2022-11-18T20:12:12.666Z,202.64
2022-11-18T20:14:18.350Z,203.80
2022-11-18T20:16:28.309Z,201.45
2022-11-18T20:18:38.390Z,181.34
2022-11-18T20:20:44.226Z,194.30
2022-11-18T20:22:50.884Z,205.17
2022-11-18T20:24:57.094Z,200.58
2022-11-18T20:27:02.968Z,180.79
2022-11-18T20:29:10.981Z,176.90
2022-11-18T20:31:19.778Z,173.71
2022-11-18T20:33:25.539Z,173.38
2022-11-18T20:35:35.151Z,171.56
2022-11-18T20:37:42.689Z,175.01
2022-11-18T20:39:48.441Z,171.57
2022-11-18T20:42:07.293Z,163.49
2022-11-18T20:44:13.091Z,165.35
2022-11-18T20:46:22.655Z,164.44
2022-11-18T20:48:29.524Z,162.28
2022-11-18T20:50:40.545Z,165.89
2022-11-18T20:52:46.317Z,162.37
2022-11-18T20:54:52.855Z,166.42
2022-11-18T20:56:58.688Z,166.32
2022-11-18T20:59:04.416Z,157.33
2022-11-18T21:01:13.428Z,152.92
2022-11-18T21:03:21.364Z,157.27
2022-11-18T21:05:27.625Z,164.83
2022-11-18T21:07:38.165Z,165.78
2022-11-18T21:09:43.922Z,163.16
2022-11-18T21:11:49.685Z,165.55
2022-11-18T21:14:09.373Z,168.27
2022-11-18T21:16:15.176Z,170.82
2022-11-18T21:18:20.920Z,163.64
2022-11-18T21:20:39.944Z,156.70
2022-11-18T21:22:48.414Z,163.51
2022-11-18T21:24:54.184Z,167.21
2022-11-18T21:27:03.176Z,171.48
2022-11-18T21:29:12.502Z,178.00
2022-11-18T21:31:23.237Z,185.55
2022-11-18T21:33:30.040Z,166.53
2022-11-18T21:35:38.956Z,165.46
2022-11-18T21:37:47.304Z,171.20
2022-11-18T21:39:53.838Z,168.81
2022-11-18T21:41:59.611Z,157.28
2022-11-18T21:44:06.729Z,160.61
2022-11-18T21:46:17.493Z,163.38
2022-11-18T21:48:23.160Z,167.59
2022-11-18T21:50:28.906Z,159.92
2022-11-18T21:52:35.387Z,145.37
2022-11-18T21:54:43.693Z,156.04
2022-11-18T21:56:49.554Z,152.02
2022-11-18T21:58:56.169Z,149.22
2022-11-18T22:01:10.693Z,150.95
2022-11-18T22:03:16.577Z,145.93
2022-11-18T22:05:23.130Z,147.82
2022-11-18T22:07:29.237Z,148.16
2022-11-18T22:09:36.950Z,155.81
2022-11-18T22:11:46.329Z,149.62
2022-11-18T22:13:54.122Z,149.36
2022-11-18T22:16:03.915Z,159.33
2022-11-18T22:18:10.572Z,160.19
2022-11-18T22:20:16.795Z,154.68
2022-11-18T22:22:22.466Z,159.24
2022-11-18T22:24:29.270Z,161.55
2022-11-18T22:26:35.003Z,155.12
2022-11-18T22:28:43.533Z,154.57
2022-11-18T22:30:50.109Z,156.92
2022-11-18T22:32:55.883Z,155.09
2022-11-18T22:35:01.644Z,161.62
2022-11-18T22:37:08.740Z,167.67
2022-11-18T22:39:14.498Z,175.93
2022-11-18T22:41:35.386Z,178.47
2022-11-18T22:43:44.543Z,177.82
2022-11-18T22:45:50.234Z,180.78
2022-11-18T22:47:56.040Z,184.08
2022-11-18T22:50:02.626Z,191.14
2022-11-18T22:52:08.815Z,188.38
2022-11-18T22:56:41.308Z,195.08
2022-11-18T22:58:50.148Z,199.21
2022-11-18T23:00:55.850Z,207.33
2022-11-18T23:03:02.413Z,213.50
2022-11-18T23:05:10.877Z,210.18
2022-11-18T23:07:16.817Z,203.82
2022-11-18T23:09:23.409Z,199.04
2022-11-18T23:11:41.581Z,208.43
2022-11-18T23:14:07.224Z,213.42
2022-11-18T23:16:13.914Z,211.18
2022-11-18T23:18:19.664Z,197.26
2022-11-18T23:20:25.323Z,200.68
2022-11-18T23:22:31.942Z,188.99
2022-11-18T23:24:39.179Z,191.95
2022-11-18T23:26:45.700Z,202.09
2022-11-18T23:28:55.872Z,198.10
2022-11-18T23:31:08.290Z,203.51
2022-11-18T23:33:14.045Z,198.90
2022-11-18T23:35:20.613Z,192.29
2022-11-18T23:37:26.266Z,199.23
2022-11-18T23:39:31.986Z,189.52
2022-11-18T23:41:38.837Z,192.38
2022-11-18T23:43:47.025Z,192.48
2022-11-18T23:45:56.351Z,189.45
2022-11-18T23:48:02.938Z,193.85
2022-11-18T23:50:10.142Z,182.97
2022-11-18T23:52:16.272Z,184.17
2022-11-18T23:54:22.815Z,185.01
2022-11-18T23:56:35.096Z,187.74
2022-11-18T23:58:47.832Z,192.27
